Lake Dawn — 3EXJ9 — position and weather

sailwx.info

Track history (hours):
 
Tides and Currents Weather Stations Pressure Air Temp Water Temp Dewpoint Dewpoint Depression Visibility Wind Speed Wind Dir Waves Ship Positions

Lake Dawn

Last reported at 2018-Jan-10 17:36 UTC. Time now 2018-Jan-20 01:29 UTC.
Position S 27°53' E 153°51'.
Warning: this ship's position is 9 days out of date.

Length 229 m; draft 7.1 m.

Type: Cargo ship. MMSI: 355196000.

Date/timePositionNaut miles runAvg speedWind from/ knotsBaromVisibWave heightAir tempDewpointWater temp
2018-Jan-10 17:36S 27°53' E 153°51'110.6
2018-Jan-10 17:30S 27°54' E 153°51'510.5
2018-Jan-10 17:00S 27°59' E 153°51'510.7
2018-Jan-10 16:30S 28°05' E 153°52'510.8
2018-Jan-10 16:00S 28°10' E 153°52'510.7
2018-Jan-10 15:30S 28°16' E 153°52'510.8
2018-Jan-10 15:00S 28°21' E 153°52'510.7
2018-Jan-10 14:30S 28°26' E 153°53'611.2
2018-Jan-10 13:59S 28°32' E 153°53'25211.8
2018-Jan-09 16:43S 32°36' E 152°40'211.1
2018-Jan-09 16:30S 32°37' E 152°38'611.2
2018-Jan-09 16:00S 32°41' E 152°32'612.1
2018-Jan-09 15:30S 32°44' E 152°26'612.9
2018-Jan-09 15:00S 32°48' E 152°20'612.8
2018-Jan-09 14:30S 32°51' E 152°14'612.9
2018-Jan-09 14:00S 32°55' E 152°07'612.5
2018-Jan-09 13:30S 32°57' E 152°00'611.9
2018-Jan-09 13:00S 32°56' E 151°53'4 8.3
2018-Jan-09 12:30S 32°55' E 151°49'2 4.0
2018-Jan-09 12:00S 32°54' E 151°46'1 2.4
2018-Jan-09 11:29S 32°53' E 151°46'0 0.0
2018-Jan-09 10:56S 32°53' E 151°46'0 0.0
2018-Jan-09 09:23S 32°53' E 151°46'0 0.0
2018-Jan-09 08:59S 32°53' E 151°46'0 0.0
2018-Jan-09 08:26S 32°53' E 151°46'0 0.0
2018-Jan-09 07:59S 32°53' E 151°46'0 0.0
2018-Jan-09 07:29S 32°53' E 151°46'0 0.0
2018-Jan-09 06:59S 32°53' E 151°46'0 0.0
2018-Jan-09 06:29S 32°53' E 151°46'0 0.0
2018-Jan-09 05:59S 32°53' E 151°46'0 0.0
2018-Jan-09 05:29S 32°53' E 151°46'0 0.0
2018-Jan-09 04:26S 32°53' E 151°46'0 0.0
2018-Jan-09 03:50S 32°53' E 151°46'0 0.0
2018-Jan-09 03:29S 32°53' E 151°46'0 0.0
2018-Jan-09 02:59S 32°53' E 151°46'0 0.0
2018-Jan-09 02:29S 32°53' E 151°46'0 0.0
2018-Jan-09 01:59S 32°53' E 151°46'0 0.0
2018-Jan-09 01:29S 32°53' E 151°46'0 0.0
2018-Jan-09 00:59S 32°53' E 151°46'0 0.0
2018-Jan-09 00:29S 32°53' E 151°46'0 0.0
2018-Jan-08 23:59S 32°53' E 151°46'0 0.0
2018-Jan-08 23:29S 32°53' E 151°46'0 0.0
2018-Jan-08 22:59S 32°53' E 151°46'0 0.0
2018-Jan-08 22:29S 32°53' E 151°46'0 0.0
2018-Jan-08 21:59S 32°53' E 151°46'0 0.0
2018-Jan-08 21:29S 32°53' E 151°46'0 0.0
2018-Jan-08 21:00S 32°53' E 151°46'1 2.3
2018-Jan-08 20:30S 32°54' E 151°46'3 5.8
2018-Jan-08 20:01S 32°55' E 151°50'5 9.6
2018-Jan-08 19:30S 32°59' E 151°52'4 7.6
2018-Jan-08 19:01S 33°03' E 151°52'510.5
2018-Jan-08 18:30S 33°07' E 151°48'1011.4
2018-Jan-08 17:37S 33°14' E 151°40'0 0.1
2018-Jan-08 16:34S 33°14' E 151°40'0 0.1
2018-Jan-08 16:10S 33°14' E 151°40'0 0.0
2018-Jan-08 13:10S 33°14' E 151°40'0 0.0
2018-Jan-08 12:58S 33°14' E 151°40'0 0.1
2018-Jan-08 12:25S 33°14' E 151°40'0 0.1
2018-Jan-08 12:01S 33°14' E 151°40'0 0.2
2018-Jan-08 11:28S 33°14' E 151°40'0 0.2
2018-Jan-08 10:58S 33°14' E 151°40'0 0.0
2018-Jan-08 10:25S 33°14' E 151°40'0 0.0
2018-Jan-08 09:58S 33°14' E 151°40'0 0.1
2018-Jan-08 08:46S 33°14' E 151°40'0 0.1
2018-Jan-08 08:25S 33°14' E 151°40'0 0.2
2018-Jan-08 08:01S 33°14' E 151°40'0 0.2
2018-Jan-08 07:04S 33°15' E 151°40'0 0.1
2018-Jan-08 06:58S 33°15' E 151°40'0 0.4
2018-Jan-08 06:28S 33°14' E 151°40'0 0.1
2018-Jan-08 06:00S 33°14' E 151°40'0 0.2
2018-Jan-08 05:27S 33°15' E 151°40'0 0.0
2018-Jan-08 05:01S 33°15' E 151°40'0 0.0
2018-Jan-08 04:28S 33°15' E 151°40'0 0.0
2018-Jan-08 03:58S 33°14' E 151°40'0 0.0
2018-Jan-08 03:31S 33°14' E 151°40'0 0.1
2018-Jan-08 03:01S 33°14' E 151°40'0 0.0
2018-Jan-08 02:27S 33°14' E 151°40'0 0.1
2018-Jan-08 02:01S 33°14' E 151°40'0 0.1
2018-Jan-08 01:22S 33°14' E 151°40'0 0.0
2018-Jan-08 00:57S 33°14' E 151°40'0 0.0
2018-Jan-08 00:30S 33°14' E 151°40'0 0.1
2018-Jan-07 23:58S 33°14' E 151°40'0 0.0
2018-Jan-07 22:33S 33°14' E 151°40'0 0.0
2018-Jan-07 22:09S 33°14' E 151°40'0 0.0
2018-Jan-07 21:55S 33°14' E 151°40'0 0.1
2018-Jan-07 20:51S 33°14' E 151°40'0 0.0
2018-Jan-07 20:27S 33°14' E 151°40'0 0.2
2018-Jan-07 20:01S 33°14' E 151°40'0 0.1
2018-Jan-07 19:16S 33°14' E 151°40'0 0.1
2018-Jan-07 18:52S 33°14' E 151°40'0 0.0
2018-Jan-07 18:27S 33°14' E 151°40'0 0.0
2018-Jan-07 16:09S 33°14' E 151°40'0 0.2
2018-Jan-07 15:51S 33°14' E 151°40'0 0.0
2018-Jan-07 15:27S 33°14' E 151°40'0 0.0
2018-Jan-07 13:45S 33°14' E 151°40'0 0.1
2018-Jan-07 11:45S 33°14' E 151°40'0 0.1
2018-Jan-07 11:15S 33°14' E 151°40'0 0.3
2018-Jan-07 10:18S 33°15' E 151°40'0 0.4
2018-Jan-07 09:51S 33°15' E 151°40'0 0.2
2018-Jan-07 09:30S 33°15' E 151°40'0 0.1
2018-Jan-07 09:00S 33°15' E 151°40'0 0.1
2018-Jan-07 08:30S 33°15' E 151°40'0 0.0
2018-Jan-07 08:01S 33°15' E 151°40'0 0.1
2018-Jan-07 07:24S 33°15' E 151°40'0 0.0
2018-Jan-07 07:00S 33°15' E 151°40'0 0.0
2018-Jan-07 06:27S 33°15' E 151°40'0 0.0
2018-Jan-07 05:48S 33°15' E 151°40'0 0.1
2018-Jan-07 05:30S 33°15' E 151°40'0 0.0
2018-Jan-07 04:57S 33°15' E 151°40'0 0.0
2018-Jan-07 04:27S 33°15' E 151°40'0 0.0
2018-Jan-07 04:00S 33°15' E 151°40'0 0.0
2018-Jan-06 22:21S 33°15' E 151°40'0 0.0
2018-Jan-06 22:00S 33°15' E 151°40'0 0.0
2018-Jan-06 21:30S 33°15' E 151°40'0 0.0
2018-Jan-06 21:00S 33°15' E 151°40'0 0.0
2018-Jan-06 20:30S 33°15' E 151°40'0 0.0
2018-Jan-06 20:00S 33°15' E 151°40'0 0.0
2018-Jan-06 19:30S 33°15' E 151°40'0 0.0
2018-Jan-06 19:00S 33°15' E 151°40'0 0.0
2018-Jan-06 18:30S 33°15' E 151°40'0 0.1
2018-Jan-06 18:00S 33°15' E 151°40'0 0.0
2018-Jan-06 17:30S 33°15' E 151°40'0 0.0
2018-Jan-06 17:00S 33°15' E 151°40'0 0.0
2018-Jan-06 16:30S 33°15' E 151°40'0 0.0
2018-Jan-06 16:00S 33°15' E 151°40'0 0.0
2018-Jan-06 15:30S 33°15' E 151°40'0 0.0
2018-Jan-06 15:00S 33°15' E 151°40'0 0.0
2018-Jan-06 14:30S 33°15' E 151°40'0 0.0
2018-Jan-06 14:00S 33°15' E 151°40'0 0.0
2018-Jan-06 13:30S 33°15' E 151°40'0 0.0
2018-Jan-06 13:00S 33°15' E 151°40'0 0.0
2018-Jan-06 12:30S 33°15' E 151°40'0 0.1
2018-Jan-06 12:00S 33°15' E 151°40'0 0.0
2018-Jan-06 11:27S 33°15' E 151°40'0 0.0
2018-Jan-06 11:00S 33°15' E 151°40'0 0.0
2018-Jan-06 10:30S 33°15' E 151°40'0 0.0
2018-Jan-06 10:00S 33°15' E 151°40'0 0.0
2018-Jan-06 09:30S 33°15' E 151°40'0 0.0
2018-Jan-06 09:00S 33°15' E 151°40'0 0.0
2018-Jan-06 08:30S 33°15' E 151°40'0 0.1
2018-Jan-06 08:00S 33°15' E 151°40'0 0.1
2018-Jan-06 07:30S 33°15' E 151°40'0 0.1
2018-Jan-06 07:00S 33°15' E 151°40'0 0.1
2018-Jan-06 06:30S 33°15' E 151°40'0 0.1
2018-Jan-06 06:00S 33°15' E 151°40'0 0.0
2018-Jan-06 05:30S 33°15' E 151°40'0 0.0
2018-Jan-06 05:00S 33°15' E 151°40'0 0.0
2018-Jan-06 04:30S 33°15' E 151°40'0 0.0
2018-Jan-06 04:00S 33°15' E 151°40'0 0.0
2018-Jan-06 03:30S 33°15' E 151°40'0 0.0
2018-Jan-06 03:00S 33°15' E 151°40'0 0.0
2018-Jan-06 02:30S 33°15' E 151°40'0 0.0
2018-Jan-06 01:57S 33°15' E 151°40'0 0.0
2018-Jan-05 22:15S 33°14' E 151°40'0 0.0
2018-Jan-05 21:51S 33°14' E 151°40'0 0.0
2018-Jan-05 10:57S 33°15' E 151°40'0 0.0
2018-Jan-05 10:27S 33°14' E 151°40'0 0.0
2018-Jan-05 09:57S 33°14' E 151°40'0 0.0
2018-Jan-05 09:18S 33°14' E 151°40'0 0.0
2018-Jan-05 09:00S 33°15' E 151°40'0 0.0
2018-Jan-05 08:18S 33°15' E 151°40'0 0.0
2018-Jan-05 07:18S 33°15' E 151°40'0 0.0
2018-Jan-05 07:00S 33°15' E 151°40'0 0.0
2018-Jan-05 06:30S 33°15' E 151°40'0 0.0
2018-Jan-05 05:57S 33°15' E 151°40'0 0.0
2018-Jan-05 05:30S 33°14' E 151°40'4 0.5
2018-Jan-04 21:48S 33°13' E 151°44'310.2
2018-Jan-04 21:29S 33°10' E 151°46'612.7
2018-Jan-04 21:00S 33°05' E 151°51'612.7
2018-Jan-04 20:30S 33°01' E 151°56'612.5
2018-Jan-04 20:00S 32°57' E 152°02'713.7
2018-Jan-04 19:30S 32°55' E 152°10'713.6
2018-Jan-04 19:00S 32°52' E 152°17'713.5
2018-Jan-04 18:30S 32°47' E 152°23'713.2
2018-Jan-04 18:00S 32°43' E 152°29'713.6
2018-Jan-04 17:30S 32°38' E 152°35'714.1
2018-Jan-04 16:59S 32°33' E 152°40'714.8
2018-Jan-04 16:30S 32°26' E 152°44'23313.2
2018-Jan-03 22:51S 28°40' E 153°49'411.5
2018-Jan-03 22:30S 28°36' E 153°50'611.3
2018-Jan-03 22:00S 28°31' E 153°51'611.6
2018-Jan-03 21:30S 28°25' E 153°52'612.0
2018-Jan-03 21:00S 28°19' E 153°53'612.2
2018-Jan-03 20:30S 28°13' E 153°54'612.5
2018-Jan-03 20:00S 28°07' E 153°56'612.3
2018-Jan-03 19:30S 28°01' E 153°56'612.4
2018-Jan-03 19:00S 27°54' E 153°56'612.3
2018-Jan-03 18:30S 27°48' E 153°56'612.1
2018-Jan-03 18:01S 27°42' E 153°56'  
Track history (hours):
 
Tides and Currents Weather Stations Pressure Air Temp Water Temp Dewpoint Dewpoint Depression Visibility Wind Speed Wind Dir Waves Ship Positions

Lake Dawn

Last reported at 2018-Jan-10 17:36 UTC. Time now 2018-Jan-20 01:29 UTC.
Position S 27°53' E 153°51'.
Warning: this ship's position is 9 days out of date.

Length 229 m; draft 7.1 m.

Type: Cargo ship. MMSI: 355196000.

Date/timePositionNaut miles runAvg speedWind from/ knotsBaromVisibWave heightAir tempDewpointWater temp
2018-Jan-10 17:36S 27°53' E 153°51'110.6
2018-Jan-10 17:30S 27°54' E 153°51'510.5
2018-Jan-10 17:00S 27°59' E 153°51'510.7
2018-Jan-10 16:30S 28°05' E 153°52'510.8
2018-Jan-10 16:00S 28°10' E 153°52'510.7
2018-Jan-10 15:30S 28°16' E 153°52'510.8
2018-Jan-10 15:00S 28°21' E 153°52'510.7
2018-Jan-10 14:30S 28°26' E 153°53'611.2
2018-Jan-10 13:59S 28°32' E 153°53'25211.8
2018-Jan-09 16:43S 32°36' E 152°40'211.1
2018-Jan-09 16:30S 32°37' E 152°38'611.2
2018-Jan-09 16:00S 32°41' E 152°32'612.1
2018-Jan-09 15:30S 32°44' E 152°26'612.9
2018-Jan-09 15:00S 32°48' E 152°20'612.8
2018-Jan-09 14:30S 32°51' E 152°14'612.9
2018-Jan-09 14:00S 32°55' E 152°07'612.5
2018-Jan-09 13:30S 32°57' E 152°00'611.9
2018-Jan-09 13:00S 32°56' E 151°53'4 8.3
2018-Jan-09 12:30S 32°55' E 151°49'2 4.0
2018-Jan-09 12:00S 32°54' E 151°46'1 2.4
2018-Jan-09 11:29S 32°53' E 151°46'0 0.0
2018-Jan-09 10:56S 32°53' E 151°46'0 0.0
2018-Jan-09 09:23S 32°53' E 151°46'0 0.0
2018-Jan-09 08:59S 32°53' E 151°46'0 0.0
2018-Jan-09 08:26S 32°53' E 151°46'0 0.0
2018-Jan-09 07:59S 32°53' E 151°46'0 0.0
2018-Jan-09 07:29S 32°53' E 151°46'0 0.0
2018-Jan-09 06:59S 32°53' E 151°46'0 0.0
2018-Jan-09 06:29S 32°53' E 151°46'0 0.0
2018-Jan-09 05:59S 32°53' E 151°46'0 0.0
2018-Jan-09 05:29S 32°53' E 151°46'0 0.0
2018-Jan-09 04:26S 32°53' E 151°46'0 0.0
2018-Jan-09 03:50S 32°53' E 151°46'0 0.0
2018-Jan-09 03:29S 32°53' E 151°46'0 0.0
2018-Jan-09 02:59S 32°53' E 151°46'0 0.0
2018-Jan-09 02:29S 32°53' E 151°46'0 0.0
2018-Jan-09 01:59S 32°53' E 151°46'0 0.0
2018-Jan-09 01:29S 32°53' E 151°46'0 0.0
2018-Jan-09 00:59S 32°53' E 151°46'0 0.0
2018-Jan-09 00:29S 32°53' E 151°46'0 0.0
2018-Jan-08 23:59S 32°53' E 151°46'0 0.0
2018-Jan-08 23:29S 32°53' E 151°46'0 0.0
2018-Jan-08 22:59S 32°53' E 151°46'0 0.0
2018-Jan-08 22:29S 32°53' E 151°46'0 0.0
2018-Jan-08 21:59S 32°53' E 151°46'0 0.0
2018-Jan-08 21:29S 32°53' E 151°46'0 0.0
2018-Jan-08 21:00S 32°53' E 151°46'1 2.3
2018-Jan-08 20:30S 32°54' E 151°46'3 5.8
2018-Jan-08 20:01S 32°55' E 151°50'5 9.6
2018-Jan-08 19:30S 32°59' E 151°52'4 7.6
2018-Jan-08 19:01S 33°03' E 151°52'510.5
2018-Jan-08 18:30S 33°07' E 151°48'1011.4
2018-Jan-08 17:37S 33°14' E 151°40'0 0.1
2018-Jan-08 16:34S 33°14' E 151°40'0 0.1
2018-Jan-08 16:10S 33°14' E 151°40'0 0.0
2018-Jan-08 13:10S 33°14' E 151°40'0 0.0
2018-Jan-08 12:58S 33°14' E 151°40'0 0.1
2018-Jan-08 12:25S 33°14' E 151°40'0 0.1
2018-Jan-08 12:01S 33°14' E 151°40'0 0.2
2018-Jan-08 11:28S 33°14' E 151°40'0 0.2
2018-Jan-08 10:58S 33°14' E 151°40'0 0.0
2018-Jan-08 10:25S 33°14' E 151°40'0 0.0
2018-Jan-08 09:58S 33°14' E 151°40'0 0.1
2018-Jan-08 08:46S 33°14' E 151°40'0 0.1
2018-Jan-08 08:25S 33°14' E 151°40'0 0.2
2018-Jan-08 08:01S 33°14' E 151°40'0 0.2
2018-Jan-08 07:04S 33°15' E 151°40'0 0.1
2018-Jan-08 06:58S 33°15' E 151°40'0 0.4
2018-Jan-08 06:28S 33°14' E 151°40'0 0.1
2018-Jan-08 06:00S 33°14' E 151°40'0 0.2
2018-Jan-08 05:27S 33°15' E 151°40'0 0.0
2018-Jan-08 05:01S 33°15' E 151°40'0 0.0
2018-Jan-08 04:28S 33°15' E 151°40'0 0.0
2018-Jan-08 03:58S 33°14' E 151°40'0 0.0
2018-Jan-08 03:31S 33°14' E 151°40'0 0.1
2018-Jan-08 03:01S 33°14' E 151°40'0 0.0
2018-Jan-08 02:27S 33°14' E 151°40'0 0.1
2018-Jan-08 02:01S 33°14' E 151°40'0 0.1
2018-Jan-08 01:22S 33°14' E 151°40'0 0.0
2018-Jan-08 00:57S 33°14' E 151°40'0 0.0
2018-Jan-08 00:30S 33°14' E 151°40'0 0.1
2018-Jan-07 23:58S 33°14' E 151°40'0 0.0
2018-Jan-07 22:33S 33°14' E 151°40'0 0.0
2018-Jan-07 22:09S 33°14' E 151°40'0 0.0
2018-Jan-07 21:55S 33°14' E 151°40'0 0.1
2018-Jan-07 20:51S 33°14' E 151°40'0 0.0
2018-Jan-07 20:27S 33°14' E 151°40'0 0.2
2018-Jan-07 20:01S 33°14' E 151°40'0 0.1
2018-Jan-07 19:16S 33°14' E 151°40'0 0.1
2018-Jan-07 18:52S 33°14' E 151°40'0 0.0
2018-Jan-07 18:27S 33°14' E 151°40'0 0.0
2018-Jan-07 16:09S 33°14' E 151°40'0 0.2
2018-Jan-07 15:51S 33°14' E 151°40'0 0.0
2018-Jan-07 15:27S 33°14' E 151°40'0 0.0
2018-Jan-07 13:45S 33°14' E 151°40'0 0.1
2018-Jan-07 11:45S 33°14' E 151°40'0 0.1
2018-Jan-07 11:15S 33°14' E 151°40'0 0.3
2018-Jan-07 10:18S 33°15' E 151°40'0 0.4
2018-Jan-07 09:51S 33°15' E 151°40'0 0.2
2018-Jan-07 09:30S 33°15' E 151°40'0 0.1
2018-Jan-07 09:00S 33°15' E 151°40'0 0.1
2018-Jan-07 08:30S 33°15' E 151°40'0 0.0
2018-Jan-07 08:01S 33°15' E 151°40'0 0.1
2018-Jan-07 07:24S 33°15' E 151°40'0 0.0
2018-Jan-07 07:00S 33°15' E 151°40'0 0.0
2018-Jan-07 06:27S 33°15' E 151°40'0 0.0
2018-Jan-07 05:48S 33°15' E 151°40'0 0.1
2018-Jan-07 05:30S 33°15' E 151°40'0 0.0
2018-Jan-07 04:57S 33°15' E 151°40'0 0.0
2018-Jan-07 04:27S 33°15' E 151°40'0 0.0
2018-Jan-07 04:00S 33°15' E 151°40'0 0.0
2018-Jan-06 22:21S 33°15' E 151°40'0 0.0
2018-Jan-06 22:00S 33°15' E 151°40'0 0.0
2018-Jan-06 21:30S 33°15' E 151°40'0 0.0
2018-Jan-06 21:00S 33°15' E 151°40'0 0.0
2018-Jan-06 20:30S 33°15' E 151°40'0 0.0
2018-Jan-06 20:00S 33°15' E 151°40'0 0.0
2018-Jan-06 19:30S 33°15' E 151°40'0 0.0
2018-Jan-06 19:00S 33°15' E 151°40'0 0.0
2018-Jan-06 18:30S 33°15' E 151°40'0 0.1
2018-Jan-06 18:00S 33°15' E 151°40'0 0.0
2018-Jan-06 17:30S 33°15' E 151°40'0 0.0
2018-Jan-06 17:00S 33°15' E 151°40'0 0.0
2018-Jan-06 16:30S 33°15' E 151°40'0 0.0
2018-Jan-06 16:00S 33°15' E 151°40'0 0.0
2018-Jan-06 15:30S 33°15' E 151°40'0 0.0
2018-Jan-06 15:00S 33°15' E 151°40'0 0.0
2018-Jan-06 14:30S 33°15' E 151°40'0 0.0
2018-Jan-06 14:00S 33°15' E 151°40'0 0.0
2018-Jan-06 13:30S 33°15' E 151°40'0 0.0
2018-Jan-06 13:00S 33°15' E 151°40'0 0.0
2018-Jan-06 12:30S 33°15' E 151°40'0 0.1
2018-Jan-06 12:00S 33°15' E 151°40'0 0.0
2018-Jan-06 11:27S 33°15' E 151°40'0 0.0
2018-Jan-06 11:00S 33°15' E 151°40'0 0.0
2018-Jan-06 10:30S 33°15' E 151°40'0 0.0
2018-Jan-06 10:00S 33°15' E 151°40'0 0.0
2018-Jan-06 09:30S 33°15' E 151°40'0 0.0
2018-Jan-06 09:00S 33°15' E 151°40'0 0.0
2018-Jan-06 08:30S 33°15' E 151°40'0 0.1
2018-Jan-06 08:00S 33°15' E 151°40'0 0.1
2018-Jan-06 07:30S 33°15' E 151°40'0 0.1
2018-Jan-06 07:00S 33°15' E 151°40'0 0.1
2018-Jan-06 06:30S 33°15' E 151°40'0 0.1
2018-Jan-06 06:00S 33°15' E 151°40'0 0.0
2018-Jan-06 05:30S 33°15' E 151°40'0 0.0
2018-Jan-06 05:00S 33°15' E 151°40'0 0.0
2018-Jan-06 04:30S 33°15' E 151°40'0 0.0
2018-Jan-06 04:00S 33°15' E 151°40'0 0.0
2018-Jan-06 03:30S 33°15' E 151°40'0 0.0
2018-Jan-06 03:00S 33°15' E 151°40'0 0.0
2018-Jan-06 02:30S 33°15' E 151°40'0 0.0
2018-Jan-06 01:57S 33°15' E 151°40'0 0.0
2018-Jan-05 22:15S 33°14' E 151°40'0 0.0
2018-Jan-05 21:51S 33°14' E 151°40'0 0.0
2018-Jan-05 10:57S 33°15' E 151°40'0 0.0
2018-Jan-05 10:27S 33°14' E 151°40'0 0.0
2018-Jan-05 09:57S 33°14' E 151°40'0 0.0
2018-Jan-05 09:18S 33°14' E 151°40'0 0.0
2018-Jan-05 09:00S 33°15' E 151°40'0 0.0
2018-Jan-05 08:18S 33°15' E 151°40'0 0.0
2018-Jan-05 07:18S 33°15' E 151°40'0 0.0
2018-Jan-05 07:00S 33°15' E 151°40'0 0.0
2018-Jan-05 06:30S 33°15' E 151°40'0 0.0
2018-Jan-05 05:57S 33°15' E 151°40'0 0.0
2018-Jan-05 05:30S 33°14' E 151°40'4 0.5
2018-Jan-04 21:48S 33°13' E 151°44'310.2
2018-Jan-04 21:29S 33°10' E 151°46'612.7
2018-Jan-04 21:00S 33°05' E 151°51'612.7
2018-Jan-04 20:30S 33°01' E 151°56'612.5
2018-Jan-04 20:00S 32°57' E 152°02'713.7
2018-Jan-04 19:30S 32°55' E 152°10'713.6
2018-Jan-04 19:00S 32°52' E 152°17'713.5
2018-Jan-04 18:30S 32°47' E 152°23'713.2
2018-Jan-04 18:00S 32°43' E 152°29'713.6
2018-Jan-04 17:30S 32°38' E 152°35'714.1
2018-Jan-04 16:59S 32°33' E 152°40'714.8
2018-Jan-04 16:30S 32°26' E 152°44'23313.2
2018-Jan-03 22:51S 28°40' E 153°49'411.5
2018-Jan-03 22:30S 28°36' E 153°50'611.3
2018-Jan-03 22:00S 28°31' E 153°51'611.6
2018-Jan-03 21:30S 28°25' E 153°52'612.0
2018-Jan-03 21:00S 28°19' E 153°53'612.2
2018-Jan-03 20:30S 28°13' E 153°54'612.5
2018-Jan-03 20:00S 28°07' E 153°56'612.3
2018-Jan-03 19:30S 28°01' E 153°56'612.4
2018-Jan-03 19:00S 27°54' E 153°56'612.3
2018-Jan-03 18:30S 27°48' E 153°56'612.1
2018-Jan-03 18:01S 27°42' E 153°56'  

Dump ship's entire track history